Main page
METAR-TAF:

METAR-TAF

Airports :

Treviso Airport

Treviso, Italy

latitude: 45-39N, longitude: 012-11E, elevation: 18 m

Current weather observation

The report was made 36 minutes ago, at 12:50 UTC
Wind 7 kt from the Southeast, varying between East and South
Temperature 22°C
Humidity 38%
Pressure 1020 hPa
Visibility 10 km or more
no clouds below 1500 m and no cumulonimbus

METAR: LIPH 211250Z 14007KT 100V180 CAVOK 22/07 Q1020

Time: 15:26 (13:26 UTC)

Forecast

The report was made 2 hours and 26 minutes ago, at 11:00 UTC
Forecast valid from 21 at 12 UTC to 22 at 12 UTC
Wind 10 kt from the Southeast
Visibility 10 km or more
no clouds below 1500 m and no cumulonimbus
Becoming
from 21 at 14 UTC to 21 at 17 UTC
Wind 5 kt from variable directions

TAF: LIPH 211100Z 2112/2212 14010KT CAVOK BECMG 2114/2117 VRB05KT

Weather observations and forecasts of more than 4000 airports (METAR and TAF reports).

The available stations are represented by yellow and red dots on the map.

Hover mouse over dot to see the name of the station.

Then click to see weather observations and forecasts.

To change the map : click on the green buttons with a black cross to zoom in, on the green button with a dash to zoom out, or on the green arrows for adjacent maps.


METAR-TAF: